Time;durP1;ratioP1;P1;durP2;ratioP2;P2;SDS_P1;SDS_P2;PMS_P1;PMS_P2;Temp;Humidity;BMP_temperature;BMP_pressure;BME280_temperature;BME280_humidity;BME280_pressure;Samples;Min_cycle;Max_cycle;Signal;HPM_P1;HPM_P2
2022/11/16 00:04:33;;;;;;;66.60;28.35;;;;;;;5.91;100.00;100197.25;5000312;57;1143085;-70
2022/11/16 00:09:38;;;;;;;59.13;24.37;;;;;;;5.90;100.00;100182.44;5029414;56;1142978;-67
2022/11/16 00:14:44;;;;;;;63.47;25.47;;;;;;;5.91;100.00;100190.69;5057985;56;1142922;-67
2022/11/16 00:19:50;;;;;;;72.53;26.70;;;;;;;5.89;100.00;100201.75;5080233;56;1143093;-67
2022/11/16 00:24:56;;;;;;;56.97;23.13;;;;;;;5.86;100.00;100194.50;5151032;56;1143025;-69
2022/11/16 00:30:04;;;;;;;51.97;23.60;;;;;;;5.82;100.00;100191.69;5146434;56;1142918;-66
2022/11/16 00:35:10;;;;;;;48.50;21.33;;;;;;;5.81;100.00;100195.25;5063910;56;1142818;-67
2022/11/16 00:40:16;;;;;;;58.37;23.10;;;;;;;5.77;100.00;100194.62;4987251;57;1143011;-68
2022/11/16 00:45:22;;;;;;;45.43;20.37;;;;;;;5.76;100.00;100186.37;4924842;58;1143126;-66
2022/11/16 00:50:27;;;;;;;44.30;20.03;;;;;;;5.74;100.00;100197.90;4967216;57;1142880;-68
2022/11/16 00:55:34;;;;;;;45.67;20.73;;;;;;;5.75;100.00;100194.34;5103532;55;1143085;-68
2022/11/16 01:00:41;;;;;;;52.15;21.37;;;;;;;5.73;100.00;100200.99;5144110;56;1143163;-66
2022/11/16 01:05:47;;;;;;;55.07;21.13;;;;;;;5.76;100.00;100189.00;5094354;56;1143000;-69
2022/11/16 01:10:53;;;;;;;56.13;23.67;;;;;;;5.79;100.00;100193.22;5131625;56;1143114;-69
2022/11/16 01:15:59;;;;;;;52.17;22.83;;;;;;;5.75;100.00;100200.44;5131452;56;1143348;-70
2022/11/16 01:21:07;;;;;;;39.80;17.27;;;;;;;5.74;100.00;100201.84;5131316;55;1142994;-69
2022/11/16 01:26:13;;;;;;;47.50;19.87;;;;;;;5.71;100.00;100198.93;5098550;57;1142985;-68
2022/11/16 01:31:20;;;;;;;45.57;20.33;;;;;;;5.68;100.00;100195.18;5103935;57;1142889;-69
2022/11/16 01:36:28;;;;;;;42.93;20.33;;;;;;;5.69;100.00;100185.53;5089257;57;1143114;-70
2022/11/16 01:41:35;;;;;;;39.08;19.82;;;;;;;5.67;100.00;100186.94;5026735;56;1143169;-68
2022/11/16 01:46:43;;;;;;;38.47;18.60;;;;;;;5.69;100.00;100193.41;4950619;57;1142842;-67
2022/11/16 01:51:55;;;;;;;44.17;19.50;;;;;;;5.64;100.00;100188.46;4898826;58;1143066;-68
2022/11/16 01:57:06;;;;;;;52.43;20.35;;;;;;;5.63;100.00;100185.00;4949717;57;1143029;-68
2022/11/16 02:02:17;;;;;;;39.90;18.47;;;;;;;5.65;100.00;100190.96;4891239;57;1143245;-70
2022/11/16 02:09:52;;;;;;;33.33;15.80;;;;;;;5.68;100.00;100187.31;4925095;57;1143035;-70
2022/11/16 02:12:57;;;;;;;36.23;17.83;;;;;;;5.69;100.00;100189.47;4887640;58;1143025;-67
2022/11/16 02:18:30;;;;;;;33.97;17.33;;;;;;;5.69;100.00;100172.41;4994228;57;1143182;-68
2022/11/16 02:23:53;;;;;;;41.08;19.55;;;;;;;5.64;100.00;100167.47;5094624;56;1143087;-70
2022/11/16 02:29:30;;;;;;;34.13;15.50;;;;;;;5.66;100.00;100166.88;5112853;56;1143131;-68
2022/11/16 02:34:40;;;;;;;42.97;19.43;;;;;;;5.68;100.00;100160.23;5037136;56;1143262;-68
2022/11/16 02:39:50;;;;;;;47.47;21.80;;;;;;;5.66;100.00;100160.32;5048156;56;1142850;-69
2022/11/16 02:44:59;;;;;;;44.07;21.20;;;;;;;5.65;100.00;100158.67;5028988;57;1142834;-70
2022/11/16 02:50:13;;;;;;;47.83;20.40;;;;;;;5.66;100.00;100155.92;5024569;57;1143058;-69
2022/11/16 02:55:18;;;;;;;;;;;;;;;5.68;100.00;100151.89;5018970;57;1143085;-70
2022/11/16 03:00:28;;;;;;;43.10;21.25;;;;;;;5.69;100.00;100143.55;5032402;57;975980;-69
2022/11/16 03:05:46;;;;;;;40.38;16.73;;;;;;;5.72;100.00;100145.52;5047304;57;1140965;-69
2022/11/16 03:16:33;;;;;;;40.53;20.27;;;;;;;5.75;100.00;100134.84;5033633;57;1143062;-67
2022/11/16 03:22:00;;;;;;;39.57;20.03;;;;;;;5.74;100.00;100125.28;5081862;55;1143160;-69
2022/11/16 03:27:26;;;;;;;31.60;14.50;;;;;;;5.75;100.00;100136.14;5084164;55;1143151;-67
2022/11/16 03:32:49;;;;;;;37.17;16.27;;;;;;;5.77;100.00;100129.49;5042391;54;1143294;-68
2022/11/16 03:38:00;;;;;;;36.93;17.00;;;;;;;5.76;100.00;100131.27;5044071;56;1143079;-70
2022/11/16 03:43:09;;;;;;;30.70;16.07;;;;;;;5.75;100.00;100131.37;5038761;56;1143225;-70
2022/11/16 03:48:17;;;;;;;20.37;11.60;;;;;;;5.73;100.00;100124.91;5043680;56;1143254;-67
2022/11/16 03:53:23;;;;;;;30.67;16.33;;;;;;;5.77;100.00;100125.55;5094453;54;1143142;-70
2022/11/16 03:58:29;;;;;;;30.90;14.83;;;;;;;5.74;100.00;100121.81;5076123;56;1143037;-71
2022/11/16 04:03:36;;;;;;;26.48;14.33;;;;;;;5.72;100.00;100121.06;5063408;56;1143120;-66
2022/11/16 04:24:51;;;;;;;23.33;12.60;;;;;;;5.68;100.00;100090.23;4903193;57;1142872;-68
2022/11/16 04:30:01;;;;;;;31.37;16.60;;;;;;;5.76;100.00;100092.38;5172799;55;1142807;-66
2022/11/16 04:40:34;;;;;;;24.52;13.18;;;;;;;5.74;100.00;100095.10;5056325;55;1143044;-70
2022/11/16 04:51:06;;;;;;;30.30;14.10;;;;;;;5.77;100.00;100084.41;5147620;55;1142905;-68
2022/11/16 04:56:12;;;;;;;29.27;15.30;;;;;;;5.76;100.00;100088.45;5141852;55;1143026;-69
2022/11/16 05:02:06;;;;;;;28.10;15.23;;;;;;;5.72;100.00;100083.86;5181953;54;1142878;-69
2022/11/16 05:06:27;;;;;;;23.87;12.50;;;;;;;5.72;100.00;100083.02;5193010;54;1143170;-69
2022/11/16 05:11:33;;;;;;;21.17;12.37;;;;;;;5.74;100.00;100075.89;5201330;55;1143097;-69
2022/11/16 05:16:39;;;;;;;25.47;14.53;;;;;;;5.76;100.00;100079.27;5208034;55;1143109;-70
2022/11/16 05:21:46;;;;;;;27.47;14.30;;;;;;;5.70;100.00;100057.34;5139503;55;1142989;-69
2022/11/16 05:26:52;;;;;;;22.43;12.87;;;;;;;5.78;100.00;100070.36;5175167;55;1143014;-69
2022/11/16 05:32:00;;;;;;;28.83;15.97;;;;;;;5.78;100.00;100065.58;5175554;55;1143220;-69
2022/11/16 05:37:06;;;;;;;27.10;14.80;;;;;;;5.81;100.00;100064.04;5144841;55;1143106;-67
2022/11/16 05:42:12;;;;;;;24.10;12.67;;;;;;;5.81;100.00;100059.63;5144580;55;1143001;-67
2022/11/16 05:47:20;;;;;;;23.57;13.10;;;;;;;5.80;100.00;100054.05;5213064;55;1143135;-69
2022/11/16 05:52:26;;;;;;;31.03;15.47;;;;;;;5.80;100.00;100052.73;5230480;54;1143097;-70
2022/11/16 05:57:33;;;;;;;26.15;13.35;;;;;;;5.75;100.00;100058.73;5223937;54;1143014;-70
2022/11/16 06:02:39;;;;;;;46.00;17.73;;;;;;;5.74;100.00;100045.25;5223047;54;1143070;-66
2022/11/16 06:07:45;;;;;;;27.17;13.60;;;;;;;5.74;100.00;100045.25;5185851;55;1142941;-67
2022/11/16 06:12:52;;;;;;;34.63;16.10;;;;;;;5.75;100.00;100046.94;5209261;54;1143288;-69
2022/11/16 06:17:58;;;;;;;27.13;15.83;;;;;;;5.75;100.00;100043.47;5205921;54;1143092;-70
2022/11/16 06:23:04;;;;;;;28.80;14.57;;;;;;;5.74;100.00;100050.97;5232444;54;1143041;-68
2022/11/16 06:28:11;;;;;;;30.97;15.20;;;;;;;5.72;100.00;100056.78;5193774;54;1143175;-69
2022/11/16 06:33:20;;;;;;;24.35;14.47;;;;;;;5.72;100.00;100064.18;5166903;54;1143160;-68
2022/11/16 06:38:28;;;;;;;36.23;17.10;;;;;;;5.73;100.00;100059.31;5118594;55;1142986;-67
2022/11/16 06:43:35;;;;;;;33.78;16.10;;;;;;;5.74;100.00;100050.97;5113790;55;1143047;-68
2022/11/16 06:48:41;;;;;;;29.27;14.75;;;;;;;5.75;100.00;100058.73;5119497;56;1143055;-69
2022/11/16 06:53:49;;;;;;;32.25;15.45;;;;;;;5.79;100.00;100060.23;5042294;56;1143159;-68
2022/11/16 06:58:59;;;;;;;30.70;14.50;;;;;;;5.84;100.00;100058.59;5042560;56;1143012;-68
2022/11/16 07:04:05;;;;;;;29.00;14.45;;;;;;;5.81;100.00;100062.26;5131074;55;1142964;-67
2022/11/16 07:09:11;;;;;;;28.80;14.60;;;;;;;5.84;100.00;100058.13;5054009;55;1143148;-67
2022/11/16 07:14:16;;;;;;;24.73;12.23;;;;;;;5.82;100.00;100057.85;5020027;57;1143138;-70
2022/11/16 07:19:22;;;;;;;21.83;9.77;;;;;;;5.86;100.00;100060.19;5075130;56;1143017;-66
2022/11/16 07:24:29;;;;;;;16.60;7.93;;;;;;;5.81;100.00;100059.63;5135269;55;1150437;-68
2022/11/16 07:29:35;;;;;;;16.32;6.53;;;;;;;5.77;100.00;100066.05;5182475;55;1141139;-67
2022/11/16 07:34:51;;;;;;;13.73;7.23;;;;;;;5.74;100.00;100062.77;5081712;55;1140956;-69
2022/11/16 07:39:59;;;;;;;12.63;7.40;;;;;;;5.70;100.00;100066.53;5143789;55;1140985;-70
2022/11/16 07:45:07;;;;;;;14.63;7.77;;;;;;;5.71;100.00;100059.03;5143917;55;1141008;-68
2022/11/16 07:50:14;;;;;;;15.70;7.73;;;;;;;5.74;100.00;100068.02;5105382;54;1141022;-70
2022/11/16 07:55:23;;;;;;;12.70;6.43;;;;;;;5.76;100.00;100068.30;5144855;54;1140739;-70
2022/11/16 08:00:28;;;;;;;13.77;6.90;;;;;;;5.81;100.00;100068.81;5165891;55;1140947;-68
2022/11/16 08:05:36;;;;;;;22.33;7.77;;;;;;;5.85;100.00;100069.47;5139785;56;1140921;-68
2022/11/16 08:10:42;;;;;;;17.05;7.40;;;;;;;5.92;100.00;100071.64;5077311;56;1140775;-71
2022/11/16 08:15:49;;;;;;;19.80;8.60;;;;;;;5.96;100.00;100069.63;5110233;56;1140870;-68
2022/11/16 08:20:54;;;;;;;23.87;10.80;;;;;;;5.98;100.00;100072.53;5125023;55;1140865;-67
2022/11/16 08:26:05;;;;;;;17.90;10.00;;;;;;;5.98;100.00;100067.28;5143704;55;1142943;-68
2022/11/16 08:31:18;;;;;;;16.80;8.90;;;;;;;5.95;100.00;100062.73;5134383;55;1142911;-67
2022/11/16 08:36:25;;;;;;;19.93;10.67;;;;;;;6.01;100.00;100074.13;5134799;55;1140722;-66
2022/11/16 08:41:31;;;;;;;18.37;10.10;;;;;;;6.05;100.00;100061.17;5131403;56;1142993;-68
2022/11/16 08:46:38;;;;;;;19.73;10.48;;;;;;;6.07;100.00;100068.95;5131337;55;1142995;-81
2022/11/16 08:51:54;;;;;;;18.40;9.63;;;;;;;6.08;100.00;100064.07;5073825;56;1143110;-82
2022/11/16 08:57:00;;;;;;;25.33;10.07;;;;;;;6.08;100.00;100061.45;5046620;57;1140992;-81
2022/11/16 09:02:09;;;;;;;30.40;11.70;;;;;;;6.05;100.00;100060.33;5123186;55;1142874;-81
2022/11/16 09:07:15;;;;;;;27.03;10.90;;;;;;;6.08;100.00;100060.97;5099442;55;1143099;-82
2022/11/16 09:12:20;;;;;;;19.45;9.58;;;;;;;6.07;100.00;100059.29;5117452;54;1142948;-83
2022/11/16 09:17:27;;;;;;;18.57;10.18;;;;;;;6.08;100.00;100069.31;5100420;53;1140987;-81
2022/11/16 09:22:33;;;;;;;14.94;8.02;;;;;;;6.11;100.00;100073.88;5108343;55;1143000;-81
2022/11/16 09:27:39;;;;;;;25.12;11.15;;;;;;;6.13;100.00;100068.05;5146286;54;1140919;-81
2022/11/16 09:32:45;;;;;;;18.30;9.40;;;;;;;6.12;100.00;100065.52;5120627;55;1142937;-78
2022/11/16 09:37:50;;;;;;;19.00;10.73;;;;;;;6.17;100.00;100062.12;5119077;55;1141017;-79
2022/11/16 09:43:29;;;;;;;18.17;10.03;;;;;;;6.19;100.00;100065.03;5145965;55;1143181;-79
2022/11/16 09:48:38;;;;;;;20.10;9.83;;;;;;;6.19;100.00;100058.47;5146426;55;1143033;-81
2022/11/16 09:54:00;;;;;;;18.52;10.58;;;;;;;6.19;100.00;100057.63;5233913;55;1140941;-80
2022/11/16 09:59:19;;;;;;;24.73;13.40;;;;;;;6.21;100.00;100051.80;5228040;54;1143100;-82
2022/11/16 10:04:46;;;;;;;18.57;10.13;;;;;;;6.18;100.00;100055.47;5237277;54;1143014;-82
2022/11/16 10:09:52;;;;;;;20.07;10.80;;;;;;;6.18;100.00;100054.16;5217985;54;1143605;-80
2022/11/16 10:15:50;;;;;;;18.97;10.33;;;;;;;6.20;100.00;100050.95;5211868;55;1143119;-80
2022/11/16 10:21:12;;;;;;;19.73;9.20;;;;;;;6.22;100.00;100054.33;5190084;55;1143091;-81
2022/11/16 10:26:55;;;;;;;26.17;10.33;;;;;;;6.24;100.00;100055.07;5151981;55;1140877;-80
2022/11/16 10:32:24;;;;;;;14.17;7.97;;;;;;;6.27;100.00;100050.06;5144766;56;1142908;-80
2022/11/16 10:37:35;;;;;;;10.98;5.70;;;;;;;6.33;100.00;100045.25;5153576;56;1140881;-80
2022/11/16 10:42:41;;;;;;;14.17;8.10;;;;;;;6.28;100.00;100042.55;4988340;57;1141097;-81
2022/11/16 10:48:09;;;;;;;10.63;6.20;;;;;;;6.26;100.00;100038.71;5070151;54;1140969;-80
2022/11/16 10:53:28;;;;;;;6.47;4.57;;;;;;;6.20;100.00;100036.98;5139707;55;1140897;-81
2022/11/16 10:58:51;;;;;;;8.07;4.97;;;;;;;6.15;100.00;100032.04;5118271;55;1138895;-80
2022/11/16 11:03:57;;;;;;;22.23;11.03;;;;;;;6.14;100.00;100032.13;5122769;55;1139175;-81
2022/11/16 11:09:22;;;;;;;7.00;5.50;;;;;;;6.09;100.00;100031.62;5146629;55;1140811;-80
2022/11/16 11:14:27;;;;;;;12.30;8.87;;;;;;;6.07;100.00;100029.09;5117245;56;1138781;-80
2022/11/16 11:19:33;;;;;;;5.83;4.03;;;;;;;6.10;100.00;100032.84;5148113;55;1143380;-80
2022/11/16 11:24:43;;;;;;;9.23;4.53;;;;;;;6.10;100.00;100034.63;5149455;55;1136847;-81
2022/11/16 11:29:57;;;;;;;5.12;3.60;;;;;;;6.11;100.00;100035.80;5148919;55;1138761;-80
2022/11/16 11:35:05;;;;;;;4.60;3.37;;;;;;;6.14;100.00;100036.92;5146574;54;1139228;-81
2022/11/16 11:40:23;;;;;;;5.80;3.10;;;;;;;6.14;100.00;100038.70;5146605;54;1138889;-80
2022/11/16 11:45:42;;;;;;;8.03;3.63;;;;;;;6.14;100.00;100038.70;5101377;55;1138870;-80
2022/11/16 11:51:01;;;;;;;6.75;2.92;;;;;;;6.14;100.00;100034.30;5140611;55;1136739;-81
2022/11/16 11:56:07;;;;;;;7.13;4.27;;;;;;;6.19;100.00;100032.68;5123490;55;1138871;-79
2022/11/16 12:01:49;;;;;;;6.03;3.57;;;;;;;6.21;100.00;100026.86;5143955;55;1138678;-83
2022/11/16 12:07:07;;;;;;;5.57;2.60;;;;;;;6.25;100.00;100026.55;5144289;55;1138673;-79
2022/11/16 12:12:35;;;;;;;2.73;2.10;;;;;;;6.22;100.00;100018.03;5152341;55;1138758;-80
2022/11/16 12:17:51;;;;;;;2.65;2.42;;;;;;;6.18;100.00;100020.02;5086196;56;1138754;-81
2022/11/16 12:23:28;;;;;;;2.80;2.53;;;;;;;6.22;100.00;100014.94;5056620;56;1139058;-81
2022/11/16 12:29:11;;;;;;;6.97;4.43;;;;;;;6.23;100.00;100016.63;5053141;56;1136948;-80
2022/11/16 12:34:54;;;;;;;9.63;5.30;;;;;;;6.27;100.00;100020.70;5055056;56;1139034;-80
2022/11/16 12:40:22;;;;;;;8.63;4.90;;;;;;;6.28;100.00;100022.38;5057590;55;1136596;-80
2022/11/16 12:52:18;;;;;;;8.90;4.77;;;;;;;6.20;100.00;100010.73;5124707;55;1138745;-81
2022/11/16 12:58:05;;;;;;;4.50;3.17;;;;;;;6.07;100.00;100004.16;5140605;55;1136727;-80
2022/11/16 13:03:29;;;;;;;10.87;5.87;;;;;;;6.12;100.00;100015.64;5126161;55;1145331;-81
2022/11/16 13:08:59;;;;;;;10.53;4.63;;;;;;;6.11;100.00;100010.05;5105954;56;1139035;-81
2022/11/16 13:14:09;;;;;;;5.57;3.57;;;;;;;6.13;100.00;100002.89;5096797;56;1140947;-83
2022/11/16 13:19:17;;;;;;;24.57;7.13;;;;;;;6.15;100.00;100003.63;5109665;56;1138687;-83
2022/11/16 13:24:47;;;;;;;15.97;4.10;;;;;;;6.14;100.00;99989.66;5109335;56;1140912;-81
2022/11/16 13:30:15;;;;;;;5.47;4.27;;;;;;;6.13;100.00;99984.03;5108767;56;1138821;-81
2022/11/16 13:35:22;;;;;;;6.28;2.85;;;;;;;6.07;100.00;99993.66;5092288;56;1134658;-80
2022/11/16 13:40:32;;;;;;;6.33;3.40;;;;;;;5.98;100.00;99979.82;5088742;56;1136764;-80
2022/11/16 13:46:00;;;;;;;3.17;2.55;;;;;;;5.97;100.00;99981.60;5018741;56;1136920;-80
2022/11/16 13:51:11;;;;;;;4.60;2.73;;;;;;;5.95;100.00;99981.36;5043278;56;1134615;-81
2022/11/16 13:56:18;;;;;;;5.93;3.97;;;;;;;5.92;100.00;99978.94;5088103;56;1136804;-80
2022/11/16 14:01:23;;;;;;;4.57;3.53;;;;;;;5.90;100.00;99973.79;5136787;56;1136832;-81
2022/11/16 14:06:34;;;;;;;4.30;2.70;;;;;;;5.84;100.00;99968.91;5149364;55;1134657;-80
2022/11/16 14:11:40;;;;;;;6.15;3.58;;;;;;;5.73;100.00;99966.63;5062409;56;1136769;-80
2022/11/16 14:16:50;;;;;;;8.10;4.30;;;;;;;5.70;100.00;99976.86;5104142;55;1136742;-79
2022/11/16 14:22:03;;;;;;;4.08;3.47;;;;;;;5.61;100.00;99980.09;5144827;56;1134646;-79
2022/11/16 14:27:31;;;;;;;4.20;3.07;;;;;;;5.57;100.00;99972.89;5074288;56;1136882;-80
2022/11/16 14:32:46;;;;;;;3.67;3.07;;;;;;;5.52;100.00;99976.28;5056469;56;1144697;-79
2022/11/16 14:37:59;;;;;;;6.83;3.58;;;;;;;5.47;100.00;99978.84;5113670;56;1134524;-80
2022/11/16 14:43:07;;;;;;;;;;;;;;;5.44;100.00;99975.11;5133628;55;1136659;-79
2022/11/16 14:48:19;;;;;;;9.60;4.63;;;;;;;5.38;100.00;99985.52;5146321;55;972063;-80
2022/11/16 14:53:27;;;;;;;25.43;15.15;;;;;;;5.33;100.00;99988.08;5126633;56;1132560;-81
2022/11/16 14:58:35;;;;;;;4.17;3.80;;;;;;;5.27;100.00;99988.84;5157007;55;1140960;-81
2022/11/16 15:03:57;;;;;;;3.62;3.08;;;;;;;5.18;100.00;99977.64;5178058;55;1134595;-81
2022/11/16 15:09:05;;;;;;;4.67;2.93;;;;;;;5.13;100.00;99976.24;5151971;54;1134695;-80
2022/11/16 15:14:11;;;;;;;3.23;3.00;;;;;;;5.07;100.00;99978.77;5106537;56;1134672;-81
2022/11/16 15:19:16;;;;;;;4.07;3.23;;;;;;;5.03;100.00;99986.48;5134729;55;1137335;-81
2022/11/16 15:24:28;;;;;;;31.93;14.07;;;;;;;5.03;100.00;99992.19;5119922;55;1134967;-80
2022/11/16 15:29:36;;;;;;;4.28;3.67;;;;;;;5.01;100.00;99997.52;5146075;55;1139122;-80
2022/11/16 15:34:41;;;;;;;6.47;4.55;;;;;;;4.99;100.00;99999.86;5125696;55;1137026;-81
2022/11/16 15:39:47;;;;;;;33.23;15.45;;;;;;;4.94;100.00;99994.43;5142689;55;1136983;-80
2022/11/16 15:44:54;;;;;;;12.23;8.70;;;;;;;4.84;100.00;100001.66;5144216;54;1138822;-80
2022/11/16 15:50:00;;;;;;;6.92;5.25;;;;;;;4.84;100.00;100001.66;5179872;55;1138890;-81
2022/11/16 15:55:06;;;;;;;9.07;6.10;;;;;;;4.83;100.00;100001.29;5146131;56;1136609;-81
2022/11/16 16:00:23;;;;;;;10.10;4.77;;;;;;;4.74;100.00;100006.61;5127049;54;1136853;-80
2022/11/16 16:05:40;;;;;;;6.97;4.43;;;;;;;4.75;100.00;100005.67;5123349;55;1138900;-81
2022/11/16 16:10:49;;;;;;;8.43;4.30;;;;;;;4.66;100.00;100002.33;5107216;55;1136807;-79
2022/11/16 16:16:31;;;;;;;8.63;3.90;;;;;;;4.60;100.00;100014.01;5131916;55;1136881;-78
2022/11/16 16:21:47;;;;;;;7.40;3.33;;;;;;;4.63;100.00;100012.14;5148084;55;1138924;-79
2022/11/16 16:26:52;;;;;;;7.45;4.85;;;;;;;4.60;100.00;100019.25;5099320;56;1136902;-78
2022/11/16 16:31:59;;;;;;;10.30;5.43;;;;;;;4.54;100.00;100017.02;5151108;55;1136822;-78
2022/11/16 16:37:04;;;;;;;7.37;4.47;;;;;;;4.54;100.00;100017.02;5107244;55;1138742;-83
2022/11/16 16:42:14;;;;;;;7.20;5.03;;;;;;;4.47;100.00;100014.85;5170148;55;1136598;-79
2022/11/16 16:47:20;;;;;;;10.90;5.43;;;;;;;4.37;100.00;100015.88;5137575;55;1136790;-81
2022/11/16 16:52:26;;;;;;;10.63;5.37;;;;;;;4.32;100.00;100017.92;5093218;54;1138837;-79
2022/11/16 16:57:33;;;;;;;11.87;6.53;;;;;;;4.29;100.00;100009.41;5128675;55;1138817;-79
2022/11/16 17:02:40;;;;;;;6.53;4.53;;;;;;;4.29;100.00;100018.10;5091989;55;1138866;-82
2022/11/16 17:07:46;;;;;;;11.77;4.80;;;;;;;4.29;100.00;100019.41;5101586;56;1136748;-80
2022/11/16 17:12:56;;;;;;;7.40;4.43;;;;;;;4.29;100.00;100021.19;5143915;55;1138886;-81
2022/11/16 17:18:02;;;;;;;6.73;4.33;;;;;;;4.31;100.00;100017.55;5129224;55;1136702;-80
2022/11/16 17:23:09;;;;;;;11.43;4.23;;;;;;;4.29;100.00;100018.10;5131903;55;1136742;-82
2022/11/16 17:28:16;;;;;;;9.03;4.97;;;;;;;4.25;100.00;100021.86;5147466;55;1138776;-82
2022/11/16 17:33:22;;;;;;;9.20;6.40;;;;;;;4.20;100.00;100024.73;5145842;55;1136729;-79
2022/11/16 17:38:28;;;;;;;6.20;5.27;;;;;;;4.12;100.00;100028.75;5074177;54;1136832;-82
2022/11/16 17:43:34;;;;;;;14.00;6.73;;;;;;;4.11;100.00;100025.77;5179070;54;1136774;-82
2022/11/16 17:48:43;;;;;;;8.03;6.27;;;;;;;4.13;100.00;100034.34;5147871;55;1138931;-81
2022/11/16 17:53:49;;;;;;;6.03;4.20;;;;;;;4.10;100.00;100035.84;5145074;56;1136614;-80
2022/11/16 17:58:57;;;;;;;10.15;6.50;;;;;;;4.11;100.00;100043.61;5159704;55;1136570;-80
2022/11/16 18:04:05;;;;;;;5.60;4.67;;;;;;;4.05;100.00;100041.34;5036553;57;1138877;-80
2022/11/16 18:09:11;;;;;;;10.03;5.67;;;;;;;4.02;100.00;100043.28;5183151;55;1136779;-80
2022/11/16 18:14:18;;;;;;;8.15;6.37;;;;;;;4.03;100.00;100043.66;5223812;55;1138865;-81
2022/11/16 18:19:25;;;;;;;4.67;3.80;;;;;;;4.05;100.00;100050.50;5222481;55;1136803;-79
2022/11/16 18:24:32;;;;;;;15.20;6.60;;;;;;;4.00;100.00;100060.84;5209235;54;1136797;-81
2022/11/16 18:29:39;;;;;;;17.30;8.17;;;;;;;3.89;100.00;100057.08;5151027;54;1138860;-80
2022/11/16 18:34:45;;;;;;;6.75;4.03;;;;;;;3.80;100.00;100068.09;5179971;55;1138941;-80
2022/11/16 18:39:52;;;;;;;5.13;3.90;;;;;;;3.73;100.00;100072.42;5110215;56;1136835;-80
2022/11/16 18:44:58;;;;;;;5.53;3.90;;;;;;;3.67;100.00;100072.77;5177061;55;1136903;-80
2022/11/16 18:50:10;;;;;;;4.03;3.20;;;;;;;3.59;100.00;100071.05;5110109;55;1136962;-80
2022/11/16 18:55:16;;;;;;;6.00;3.90;;;;;;;3.57;100.00;100065.91;5004890;57;1136867;-81
2022/11/16 19:00:23;;;;;;;5.80;3.00;;;;;;;3.54;100.00;100070.00;5032122;56;1136753;-80
2022/11/16 19:05:31;;;;;;;8.33;5.27;;;;;;;3.49;100.00;100074.20;5113375;55;1136817;-81
2022/11/16 19:10:40;;;;;;;13.60;7.23;;;;;;;3.39;100.00;100086.06;5055018;56;1136708;-80
2022/11/16 19:15:46;;;;;;;9.00;6.70;;;;;;;3.36;100.00;100072.34;5047692;55;1138767;-82
2022/11/16 19:20:55;;;;;;;11.78;4.67;;;;;;;3.27;100.00;100072.38;5011563;54;1136894;-80
2022/11/16 19:26:04;;;;;;;8.83;5.80;;;;;;;3.29;100.00;100070.52;4899047;58;1139034;-66
2022/11/16 19:31:17;;;;;;;11.17;3.93;;;;;;;3.27;100.00;100072.38;4979429;57;1136981;-67
2022/11/16 19:36:25;;;;;;;16.17;9.23;;;;;;;3.26;100.00;100075.91;5025877;54;1138890;-81
2022/11/16 19:41:31;;;;;;;17.37;8.77;;;;;;;3.24;100.00;100075.14;5061685;55;1138945;-81
2022/11/16 19:46:38;;;;;;;14.47;8.20;;;;;;;3.22;100.00;100083.52;5061889;55;1138818;-83
2022/11/16 19:51:46;;;;;;;5.47;4.17;;;;;;;3.25;100.00;100076.83;5062198;55;1138877;-78
2022/11/16 19:56:53;;;;;;;5.70;3.80;;;;;;;3.26;100.00;100079.83;5039810;55;1136986;-83
2022/11/16 20:01:59;;;;;;;9.00;6.30;;;;;;;3.26;100.00;100071.14;5033003;56;1136775;-83
2022/11/16 20:07:08;;;;;;;9.53;5.27;;;;;;;3.21;100.00;100074.00;5157928;55;1136808;-83
2022/11/16 20:12:14;;;;;;;5.83;3.30;;;;;;;3.18;100.00;100072.88;5192251;54;1136647;-82
2022/11/16 20:17:20;;;;;;;11.87;5.83;;;;;;;3.15;100.00;100067.36;5116945;55;1136851;-83
2022/11/16 20:22:26;;;;;;;10.23;5.57;;;;;;;3.17;100.00;100073.34;5120561;55;1138801;-83
2022/11/16 20:27:32;;;;;;;7.70;3.77;;;;;;;3.16;100.00;100071.66;5078813;55;1138904;-82
2022/11/16 20:32:37;;;;;;;5.70;3.77;;;;;;;3.18;100.00;100062.44;5062402;55;1136984;-82
2022/11/16 20:37:45;;;;;;;5.97;3.97;;;;;;;3.19;100.00;100069.34;5119568;54;1136762;-81
2022/11/16 20:42:51;;;;;;;3.92;3.42;;;;;;;3.17;100.00;100065.97;5131377;55;1136845;-83
2022/11/16 20:47:56;;;;;;;6.03;4.17;;;;;;;3.18;100.00;100066.35;5150309;55;1136799;-82
2022/11/16 20:53:02;;;;;;;8.97;5.03;;;;;;;3.20;100.00;100062.35;5156707;55;1136635;-81
2022/11/16 20:58:08;;;;;;;9.67;4.00;;;;;;;3.18;100.00;100067.20;5056830;57;1136742;-83
2022/11/16 21:03:14;;;;;;;7.03;4.17;;;;;;;3.13;100.00;100069.66;5059853;56;1136889;-82
2022/11/16 21:08:20;;;;;;;4.50;3.70;;;;;;;3.11;100.00;100063.22;5140448;54;1136838;-84
2022/11/16 21:18:48;;;;;;;;;;;;;;;3.10;100.00;100047.62;5153820;56;1138793;-83
2022/11/16 21:23:54;;;;;;;4.90;3.50;;;;;;;3.08;100.00;100055.53;5112222;55;974140;-81
2022/11/16 21:29:01;;;;;;;10.83;4.87;;;;;;;3.10;100.00;100067.22;5111336;55;1134506;-83
2022/11/16 21:34:06;;;;;;;7.63;4.37;;;;;;;3.07;100.00;100059.53;5095771;55;1138879;-82
2022/11/16 21:39:12;;;;;;;8.77;4.20;;;;;;;3.07;100.00;100055.16;4952758;55;1136727;-81
2022/11/16 21:44:18;;;;;;;6.90;3.50;;;;;;;3.08;100.00;100060.76;4973903;55;1136736;-83
2022/11/16 21:49:23;;;;;;;5.67;3.50;;;;;;;3.09;100.00;100062.45;4973970;55;1136586;-81
2022/11/16 21:55:04;;;;;;;6.47;4.90;;;;;;;3.09;100.00;100068.98;4973939;56;1136611;-82
2022/11/16 21:59:42;;;;;;;10.78;5.10;;;;;;;3.11;100.00;100063.22;4958856;56;1136638;-83
2022/11/16 22:10:12;;;;;;;9.30;5.07;;;;;;;3.15;100.00;100060.83;5102394;55;1136837;-81
2022/11/16 22:15:18;;;;;;;8.60;4.57;;;;;;;3.17;100.00;100068.58;5107478;55;1136862;-82
2022/11/16 22:20:24;;;;;;;7.20;4.70;;;;;;;3.17;100.00;100070.73;5139377;55;1137098;-82
2022/11/16 22:25:29;;;;;;;6.17;4.47;;;;;;;3.19;100.00;100071.95;5197283;55;1136811;-81
2022/11/16 22:30:35;;;;;;;6.40;3.50;;;;;;;3.20;100.00;100059.27;5193424;56;1137003;-83
2022/11/16 22:35:41;;;;;;;9.83;4.30;;;;;;;3.17;100.00;100052.44;5095180;55;1137168;-84
2022/11/16 22:40:51;;;;;;;12.30;4.60;;;;;;;3.19;100.00;100058.89;4998687;55;1136712;-83
2022/11/16 22:46:05;;;;;;;5.78;3.95;;;;;;;3.21;100.00;100060.12;5049763;54;1139052;-81
2022/11/16 22:51:30;;;;;;;4.53;3.60;;;;;;;3.21;100.00;100065.34;5049623;54;1137166;-81
2022/11/16 22:56:36;;;;;;;6.97;5.00;;;;;;;3.19;100.00;100057.59;5055756;54;1136958;-82
2022/11/16 23:01:43;;;;;;;6.70;4.28;;;;;;;3.21;100.00;100058.32;5119719;55;1137066;-82
2022/11/16 23:06:49;;;;;;;7.07;4.50;;;;;;;3.23;100.00;100055.16;4988696;56;1136874;-84
2022/11/16 23:17:18;;;;;;;5.27;3.97;;;;;;;3.23;100.00;100043.87;5025612;56;1136854;-82
2022/11/16 23:28:08;;;;;;;3.90;3.60;;;;;;;3.24;100.00;100040.33;5129578;55;1136770;-82
2022/11/16 23:33:13;;;;;;;7.67;5.00;;;;;;;3.24;100.00;100037.25;5133606;54;1136966;-84
2022/11/16 23:38:19;;;;;;;8.07;4.87;;;;;;;3.21;100.00;100028.27;5025817;55;1136906;-82
2022/11/16 23:48:48;;;;;;;6.17;4.97;;;;;;;3.20;100.00;100032.30;4929031;56;1136740;-83
2022/11/16 23:53:55;;;;;;;11.68;6.60;;;;;;;3.24;100.00;100042.48;5002009;56;1136847;-82
2022/11/16 23:59:00;;;;;;;10.50;5.12;;;;;;;3.27;100.00;100047.55;5093584;56;1138983;-83
